Time;durP1;ratioP1;P1;durP2;ratioP2;P2;SDS_P1;SDS_P2;PMS_P1;PMS_P2;Temp;Humidity;BMP_temperature;BMP_pressure;BME280_temperature;BME280_humidity;BME280_pressure;Samples;Min_cycle;Max_cycle;Signal;HPM_P1;HPM_P2
2022/03/23 00:02:11;;;;;;;10.30;6.87;;;;;;;;;;4941326;28;20449;-54
2022/03/23 00:04:39;;;;;;;13.03;7.80;;;;;;;;;;4942587;28;20445;-52
2022/03/23 00:07:06;;;;;;;11.50;7.13;;;;;;;;;;4941864;28;20439;-54
2022/03/23 00:09:32;;;;;;;10.80;7.67;;;;;;;;;;4940442;28;20485;-53
2022/03/23 00:11:58;;;;;;;11.47;8.63;;;;;;;;;;4939633;28;20447;-53
2022/03/23 00:14:24;;;;;;;10.63;8.20;;;;;;;;;;4945424;28;20442;-54
2022/03/23 00:16:50;;;;;;;11.57;8.37;;;;;;;;;;4945650;28;20881;-54
2022/03/23 00:19:17;;;;;;;11.43;7.73;;;;;;;;;;4945481;28;20515;-54
2022/03/23 00:21:44;;;;;;;10.20;7.47;;;;;;;;;;4945088;28;20442;-54
2022/03/23 00:24:12;;;;;;;12.27;8.50;;;;;;;;;;4944885;28;20527;-55
2022/03/23 00:26:41;;;;;;;13.63;7.20;;;;;;;;;;4945626;28;20439;-56
2022/03/23 00:29:09;;;;;;;10.53;7.50;;;;;;;;;;4942636;28;20453;-54
2022/03/23 00:31:43;;;;;;;12.53;8.70;;;;;;;;;;4961815;28;20442;-54
2022/03/23 00:34:13;;;;;;;10.70;7.47;;;;;;;;;;4942965;28;20515;-54
2022/03/23 00:36:40;;;;;;;11.60;7.30;;;;;;;;;;4961228;28;20482;-53
2022/03/23 00:39:07;;;;;;;10.90;7.40;;;;;;;;;;4943995;28;20430;-54
2022/03/23 00:41:33;;;;;;;10.00;8.53;;;;;;;;;;4942339;28;20447;-54
2022/03/23 00:43:59;;;;;;;12.27;8.43;;;;;;;;;;4944375;28;20493;-52
2022/03/23 00:46:25;;;;;;;15.13;8.23;;;;;;;;;;4944495;28;20825;-53
2022/03/23 00:48:51;;;;;;;15.13;7.00;;;;;;;;;;4945332;28;20447;-54
2022/03/23 00:51:17;;;;;;;9.03;6.70;;;;;;;;;;4945028;28;20188;-55
2022/03/23 00:53:44;;;;;;;12.07;8.67;;;;;;;;;;4944598;28;20451;-54
2022/03/23 00:56:15;;;;;;;10.07;7.00;;;;;;;;;;4948302;28;20488;-55
2022/03/23 00:58:45;;;;;;;11.67;6.93;;;;;;;;;;4945523;28;20435;-53
2022/03/23 01:01:13;;;;;;;8.60;6.00;;;;;;;;;;4943247;28;20543;-53
2022/03/23 01:03:41;;;;;;;9.90;6.60;;;;;;;;;;4946520;28;20434;-54
2022/03/23 01:06:08;;;;;;;9.03;6.27;;;;;;;;;;4947099;28;20454;-53
2022/03/23 01:08:37;;;;;;;9.40;7.10;;;;;;;;;;4949605;28;20438;-54
2022/03/23 01:11:05;;;;;;;11.80;7.70;;;;;;;;;;4944772;28;20447;-52
2022/03/23 01:13:32;;;;;;;8.83;6.93;;;;;;;;;;4943956;28;20438;-55
2022/03/23 01:15:59;;;;;;;10.37;8.20;;;;;;;;;;4942893;28;20470;-54
2022/03/23 01:18:27;;;;;;;10.50;7.00;;;;;;;;;;4945361;28;20439;-56
2022/03/23 01:20:53;;;;;;;8.70;6.10;;;;;;;;;;4946483;28;20443;-54
2022/03/23 01:23:19;;;;;;;13.00;8.07;;;;;;;;;;4945616;28;20880;-52
2022/03/23 01:25:45;;;;;;;11.40;7.07;;;;;;;;;;4942613;28;20426;-53
2022/03/23 01:28:11;;;;;;;8.53;5.33;;;;;;;;;;4942398;28;20497;-54
2022/03/23 01:30:37;;;;;;;10.13;7.87;;;;;;;;;;4944952;28;20258;-54
2022/03/23 01:33:03;;;;;;;10.27;6.97;;;;;;;;;;4942273;28;20440;-52
2022/03/23 01:35:29;;;;;;;10.30;6.90;;;;;;;;;;4937304;28;20465;-53
2022/03/23 01:38:06;;;;;;;11.90;7.43;;;;;;;;;;4941745;28;20477;-55
2022/03/23 01:40:33;;;;;;;9.60;7.10;;;;;;;;;;4972182;28;20438;-54
2022/03/23 01:42:59;;;;;;;9.60;6.90;;;;;;;;;;4942219;28;20979;-54
2022/03/23 01:45:25;;;;;;;13.30;7.73;;;;;;;;;;4937705;28;20434;-53
2022/03/23 01:47:51;;;;;;;9.97;6.80;;;;;;;;;;4940610;28;20465;-53
2022/03/23 01:50:17;;;;;;;13.40;6.40;;;;;;;;;;4943848;28;20501;-53
2022/03/23 01:52:43;;;;;;;12.43;6.73;;;;;;;;;;4932816;28;20429;-54
2022/03/23 01:55:13;;;;;;;9.03;6.00;;;;;;;;;;4939692;28;20482;-54
2022/03/23 01:57:40;;;;;;;12.07;7.57;;;;;;;;;;4940985;28;20445;-53
2022/03/23 02:00:07;;;;;;;10.03;7.23;;;;;;;;;;4940819;28;20538;-53
2022/03/23 02:02:33;;;;;;;12.17;7.70;;;;;;;;;;4939275;28;20646;-53
2022/03/23 02:04:59;;;;;;;9.30;7.07;;;;;;;;;;4941661;28;20505;-54
2022/03/23 02:07:25;;;;;;;13.40;8.27;;;;;;;;;;4940887;28;20461;-54
2022/03/23 02:09:51;;;;;;;11.20;6.57;;;;;;;;;;4940195;28;20480;-54
2022/03/23 02:12:17;;;;;;;10.37;7.40;;;;;;;;;;4937638;28;20458;-53
2022/03/23 02:14:43;;;;;;;10.27;6.53;;;;;;;;;;4941283;28;20473;-56
2022/03/23 02:17:09;;;;;;;9.70;7.50;;;;;;;;;;4941787;28;20518;-54
2022/03/23 02:19:35;;;;;;;11.73;6.63;;;;;;;;;;4943858;28;21074;-53
2022/03/23 02:22:07;;;;;;;9.80;6.77;;;;;;;;;;4939127;28;20492;-54
2022/03/23 02:24:37;;;;;;;17.10;7.80;;;;;;;;;;4938095;28;20543;-56
2022/03/23 02:27:03;;;;;;;13.00;7.03;;;;;;;;;;4936622;28;20454;-54
2022/03/23 02:29:31;;;;;;;11.00;7.10;;;;;;;;;;4946524;28;20960;-53
2022/03/23 02:31:57;;;;;;;12.77;8.40;;;;;;;;;;4938792;28;20438;-54
2022/03/23 02:34:26;;;;;;;9.90;6.40;;;;;;;;;;4944276;28;21385;-54
2022/03/23 02:36:53;;;;;;;11.77;6.60;;;;;;;;;;4939111;28;20455;-54
2022/03/23 02:39:18;;;;;;;11.60;7.93;;;;;;;;;;4940158;28;20474;-53
2022/03/23 02:41:45;;;;;;;16.50;7.90;;;;;;;;;;4939049;28;20964;-53
2022/03/23 02:44:16;;;;;;;10.20;7.93;;;;;;;;;;4941269;28;21065;-55
2022/03/23 02:46:42;;;;;;;11.50;7.90;;;;;;;;;;4939689;28;20454;-53
2022/03/23 02:49:09;;;;;;;10.63;7.80;;;;;;;;;;4940894;28;20734;-54
2022/03/23 02:51:35;;;;;;;10.23;7.50;;;;;;;;;;4939754;28;20527;-54
2022/03/23 03:02:16;;;;;;;10.13;7.00;;;;;;;;;;4938874;28;20476;-53
2022/03/23 03:04:42;;;;;;;11.37;7.17;;;;;;;;;;4941210;28;20447;-53
2022/03/23 03:07:08;;;;;;;13.30;8.83;;;;;;;;;;4935197;28;20446;-54
2022/03/23 03:09:42;;;;;;;14.57;7.50;;;;;;;;;;4941920;28;20518;-55
2022/03/23 03:12:17;;;;;;;9.20;7.83;;;;;;;;;;4940427;28;20537;-53
2022/03/23 03:14:42;;;;;;;11.93;6.90;;;;;;;;;;4943125;28;20879;-55
2022/03/23 03:17:09;;;;;;;13.83;8.30;;;;;;;;;;4940482;28;20502;-54
2022/03/23 03:19:38;;;;;;;13.83;7.90;;;;;;;;;;4946638;28;20978;-54
2022/03/23 03:22:05;;;;;;;12.80;7.47;;;;;;;;;;4937456;28;20450;-53
2022/03/23 03:24:31;;;;;;;10.73;7.37;;;;;;;;;;4940208;28;20481;-55
2022/03/23 03:26:58;;;;;;;12.83;7.13;;;;;;;;;;4940485;28;20439;-54
2022/03/23 03:29:24;;;;;;;15.37;8.13;;;;;;;;;;4941142;28;20442;-52
2022/03/23 03:31:50;;;;;;;9.00;6.90;;;;;;;;;;4938297;28;20435;-54
2022/03/23 03:34:16;;;;;;;9.80;7.10;;;;;;;;;;4938058;28;20549;-53
2022/03/23 03:36:47;;;;;;;10.50;7.60;;;;;;;;;;4938758;28;20494;-55
2022/03/23 03:39:17;;;;;;;11.97;7.20;;;;;;;;;;4939897;28;20475;-55
2022/03/23 03:41:51;;;;;;;11.70;6.80;;;;;;;;;;4973103;28;20462;-54
2022/03/23 03:44:17;;;;;;;12.30;7.67;;;;;;;;;;4940975;28;20923;-53
2022/03/23 03:46:45;;;;;;;16.73;8.20;;;;;;;;;;4939563;28;20462;-53
2022/03/23 03:49:15;;;;;;;18.30;7.53;;;;;;;;;;4945880;28;20187;-54
2022/03/23 03:51:52;;;;;;;22.03;8.10;;;;;;;;;;4939271;28;20435;-54
2022/03/23 03:54:39;;;;;;;13.17;9.50;;;;;;;;;;4937792;28;21098;-54
2022/03/23 03:57:09;;;;;;;13.07;8.10;;;;;;;;;;4945689;28;20458;-53
2022/03/23 03:59:35;;;;;;;19.03;8.20;;;;;;;;;;4938405;28;20450;-53
2022/03/23 04:02:02;;;;;;;11.70;8.23;;;;;;;;;;4944375;28;20826;-55
2022/03/23 04:04:28;;;;;;;13.60;9.13;;;;;;;;;;4944207;28;20439;-55
2022/03/23 04:06:54;;;;;;;10.00;7.63;;;;;;;;;;4940395;28;22097;-54
2022/03/23 04:09:20;;;;;;;11.77;7.03;;;;;;;;;;4943541;28;20453;-53
2022/03/23 04:11:45;;;;;;;13.23;6.53;;;;;;;;;;4945092;28;20625;-52
2022/03/23 04:14:11;;;;;;;10.57;7.07;;;;;;;;;;4943497;28;21024;-53
2022/03/23 04:16:37;;;;;;;13.10;7.53;;;;;;;;;;4944648;28;20489;-53
2022/03/23 04:19:06;;;;;;;10.33;6.83;;;;;;;;;;4942746;28;20462;-53
2022/03/23 04:21:32;;;;;;;13.70;8.43;;;;;;;;;;4943195;28;20521;-52
2022/03/23 04:24:12;;;;;;;12.57;8.23;;;;;;;;;;4945511;28;20806;-53
2022/03/23 04:26:46;;;;;;;13.97;8.30;;;;;;;;;;4945723;28;24478;-52
2022/03/23 04:29:12;;;;;;;10.30;7.00;;;;;;;;;;4945884;28;22484;-53
2022/03/23 04:31:47;;;;;;;13.07;8.00;;;;;;;;;;4951895;28;20615;-57
2022/03/23 04:34:27;;;;;;;10.50;7.00;;;;;;;;;;4945078;28;20443;-53
2022/03/23 04:36:55;;;;;;;15.27;7.60;;;;;;;;;;4945003;28;21035;-53
2022/03/23 04:39:21;;;;;;;12.70;8.30;;;;;;;;;;4940860;28;20495;-53
2022/03/23 04:41:47;;;;;;;13.00;8.20;;;;;;;;;;4941525;28;20442;-53
2022/03/23 04:44:13;;;;;;;14.10;8.03;;;;;;;;;;4944028;28;20548;-54
2022/03/23 04:46:39;;;;;;;12.07;8.50;;;;;;;;;;4936820;28;20542;-54
2022/03/23 04:49:05;;;;;;;11.87;7.60;;;;;;;;;;4940324;28;20446;-53
2022/03/23 04:51:31;;;;;;;12.17;8.43;;;;;;;;;;4938708;28;20587;-53
2022/03/23 04:53:57;;;;;;;10.80;7.60;;;;;;;;;;4941020;28;20457;-54
2022/03/23 04:56:24;;;;;;;16.13;9.00;;;;;;;;;;4941266;28;21064;-53
2022/03/23 04:58:50;;;;;;;10.97;7.40;;;;;;;;;;4943261;28;20443;-55
2022/03/23 05:01:16;;;;;;;16.20;9.40;;;;;;;;;;4938848;28;20955;-53
2022/03/23 05:03:42;;;;;;;15.57;9.03;;;;;;;;;;4941163;28;20847;-54
2022/03/23 05:06:08;;;;;;;14.73;8.27;;;;;;;;;;4939661;28;20849;-54
2022/03/23 05:08:42;;;;;;;13.17;8.37;;;;;;;;;;4941224;28;20458;-54
2022/03/23 05:11:08;;;;;;;12.80;9.00;;;;;;;;;;4943964;28;20525;-54
2022/03/23 05:13:34;;;;;;;12.80;8.87;;;;;;;;;;4944221;28;20803;-54
2022/03/23 05:16:07;;;;;;;15.00;10.60;;;;;;;;;;4942444;28;21560;-55
2022/03/23 05:18:33;;;;;;;20.20;8.77;;;;;;;;;;4943213;28;20442;-54
2022/03/23 05:20:59;;;;;;;17.73;10.73;;;;;;;;;;4938584;28;20450;-54
2022/03/23 05:23:40;;;;;;;13.60;10.77;;;;;;;;;;4939812;28;20552;-55
2022/03/23 05:26:12;;;;;;;15.03;9.00;;;;;;;;;;4969907;28;20563;-55
2022/03/23 05:28:38;;;;;;;19.23;11.43;;;;;;;;;;4949839;28;20457;-54
2022/03/23 05:31:04;;;;;;;17.33;10.97;;;;;;;;;;4946843;28;20447;-54
2022/03/23 05:33:50;;;;;;;18.07;11.47;;;;;;;;;;4951896;28;20446;-55
2022/03/23 05:36:33;;;;;;;20.90;10.37;;;;;;;;;;4953461;28;20466;-55
2022/03/23 05:39:30;;;;;;;14.07;10.10;;;;;;;;;;4937311;28;20439;-56
2022/03/23 05:42:11;;;;;;;14.33;9.63;;;;;;;;;;4949560;28;20443;-54
2022/03/23 05:44:37;;;;;;;19.23;11.43;;;;;;;;;;4949260;28;20443;-58
2022/03/23 05:47:04;;;;;;;17.27;11.37;;;;;;;;;;4942412;28;20526;-55
2022/03/23 05:49:31;;;;;;;16.33;10.97;;;;;;;;;;4943859;28;20466;-56
2022/03/23 05:52:13;;;;;;;17.70;10.77;;;;;;;;;;4943929;28;20443;-55
2022/03/23 05:54:41;;;;;;;15.80;10.10;;;;;;;;;;4952018;28;20443;-55
2022/03/23 05:57:08;;;;;;;14.87;10.27;;;;;;;;;;4946020;28;20577;-56
2022/03/23 05:59:39;;;;;;;17.50;11.40;;;;;;;;;;4942436;28;20188;-55
2022/03/23 06:02:05;;;;;;;17.23;10.77;;;;;;;;;;4944801;28;20454;-55
2022/03/23 06:04:31;;;;;;;19.00;11.83;;;;;;;;;;4946603;28;20446;-56
2022/03/23 06:07:04;;;;;;;21.50;11.40;;;;;;;;;;4935953;28;20541;-56
2022/03/23 06:09:52;;;;;;;23.83;12.80;;;;;;;;;;4946024;28;20946;-55
2022/03/23 06:12:20;;;;;;;20.03;12.20;;;;;;;;;;4960548;28;20493;-55
2022/03/23 06:14:51;;;;;;;20.03;11.90;;;;;;;;;;4954994;28;20451;-56
2022/03/23 06:17:33;;;;;;;18.97;11.47;;;;;;;;;;4945454;28;21039;-54
2022/03/23 06:20:03;;;;;;;21.93;11.87;;;;;;;;;;4944071;28;20461;-54
2022/03/23 06:22:30;;;;;;;17.20;11.80;;;;;;;;;;4946312;28;20439;-54
2022/03/23 06:24:56;;;;;;;17.20;11.23;;;;;;;;;;4953074;28;20449;-56
2022/03/23 06:27:23;;;;;;;18.63;10.47;;;;;;;;;;4943969;28;20557;-54
2022/03/23 06:29:50;;;;;;;15.10;10.00;;;;;;;;;;4946063;28;21036;-55
2022/03/23 06:32:19;;;;;;;21.40;11.60;;;;;;;;;;4945654;28;20445;-54
2022/03/23 06:34:45;;;;;;;19.37;9.47;;;;;;;;;;4944059;28;20469;-55
2022/03/23 06:37:12;;;;;;;14.63;11.37;;;;;;;;;;4940420;28;21022;-55
2022/03/23 06:39:41;;;;;;;16.37;10.23;;;;;;;;;;4942164;28;20505;-54
2022/03/23 06:42:11;;;;;;;15.70;10.73;;;;;;;;;;4940929;28;21898;-55
2022/03/23 06:44:47;;;;;;;15.53;11.00;;;;;;;;;;4935077;28;20466;-55
2022/03/23 06:47:18;;;;;;;14.27;11.00;;;;;;;;;;4941644;28;20443;-55
2022/03/23 06:49:49;;;;;;;15.70;10.70;;;;;;;;;;4945521;28;20439;-54
2022/03/23 06:52:17;;;;;;;20.73;11.20;;;;;;;;;;4948993;28;20460;-55
2022/03/23 06:54:49;;;;;;;19.33;11.50;;;;;;;;;;4937289;28;21043;-55
2022/03/23 06:57:15;;;;;;;14.33;11.13;;;;;;;;;;4945690;28;20901;-54
2022/03/23 06:59:47;;;;;;;17.57;10.90;;;;;;;;;;4939565;28;20458;-55
2022/03/23 07:05:34;;;;;;;14.73;9.70;;;;;;;;;;4938139;28;20473;-54
2022/03/23 07:10:50;;;;;;;18.17;11.93;;;;;;;;;;4943294;28;20911;-56
2022/03/23 07:19:44;;;;;;;16.70;11.93;;;;;;;;;;4937279;28;20437;-55
2022/03/23 07:22:11;;;;;;;15.73;10.80;;;;;;;;;;4945184;28;20430;-55
2022/03/23 07:24:37;;;;;;;19.60;11.90;;;;;;;;;;4954606;28;20888;-55
2022/03/23 07:27:04;;;;;;;16.60;10.63;;;;;;;;;;4951068;28;20469;-55
2022/03/23 07:29:37;;;;;;;16.40;11.47;;;;;;;;;;4949838;28;20437;-55
2022/03/23 07:32:04;;;;;;;19.03;10.83;;;;;;;;;;4976964;28;21217;-54
2022/03/23 07:34:32;;;;;;;17.03;11.67;;;;;;;;;;4949781;28;20769;-54
2022/03/23 07:36:59;;;;;;;15.87;11.40;;;;;;;;;;4948506;28;21104;-56
2022/03/23 07:39:26;;;;;;;24.23;13.73;;;;;;;;;;4935685;28;20443;-55
2022/03/23 07:41:53;;;;;;;15.03;10.60;;;;;;;;;;4948457;28;20575;-54
2022/03/23 07:44:24;;;;;;;20.13;11.90;;;;;;;;;;4948016;28;20505;-54
2022/03/23 07:46:50;;;;;;;14.73;11.43;;;;;;;;;;4944521;28;20446;-55
2022/03/23 07:49:18;;;;;;;20.13;12.53;;;;;;;;;;4947508;28;20422;-54
2022/03/23 07:51:49;;;;;;;19.73;12.47;;;;;;;;;;4950019;28;20464;-55
2022/03/23 07:54:23;;;;;;;20.43;11.60;;;;;;;;;;4947035;28;20949;-56
2022/03/23 07:56:50;;;;;;;21.17;12.20;;;;;;;;;;4949209;28;20494;-54
2022/03/23 07:59:18;;;;;;;19.30;13.13;;;;;;;;;;4950393;28;20453;-54
2022/03/23 08:01:44;;;;;;;16.63;12.20;;;;;;;;;;4951146;28;20497;-54
2022/03/23 08:04:11;;;;;;;15.47;11.80;;;;;;;;;;4951089;28;20454;-55
2022/03/23 08:06:37;;;;;;;23.60;13.87;;;;;;;;;;4946102;28;20458;-52
2022/03/23 08:09:03;;;;;;;21.73;13.03;;;;;;;;;;4947881;28;22012;-54
2022/03/23 08:11:32;;;;;;;18.03;12.97;;;;;;;;;;4945910;28;20511;-57
2022/03/23 08:13:59;;;;;;;15.33;11.70;;;;;;;;;;4943788;28;20522;-55
2022/03/23 08:16:25;;;;;;;17.77;12.47;;;;;;;;;;4944476;28;20494;-56
2022/03/23 08:18:54;;;;;;;18.33;12.80;;;;;;;;;;4948329;28;21108;-56
2022/03/23 08:21:21;;;;;;;19.20;12.87;;;;;;;;;;4947098;28;20556;-56
2022/03/23 08:23:47;;;;;;;21.73;13.30;;;;;;;;;;4948225;28;20438;-57
2022/03/23 08:26:14;;;;;;;19.57;12.03;;;;;;;;;;4944505;28;20482;-55
2022/03/23 08:28:41;;;;;;;20.00;13.93;;;;;;;;;;4945160;28;20863;-54
2022/03/23 08:31:07;;;;;;;20.30;12.97;;;;;;;;;;4945340;28;20546;-54
2022/03/23 08:33:34;;;;;;;17.93;12.30;;;;;;;;;;4946912;28;22264;-55
2022/03/23 08:36:00;;;;;;;17.50;11.50;;;;;;;;;;4947010;28;20486;-55
2022/03/23 08:38:26;;;;;;;19.17;12.40;;;;;;;;;;4944856;28;20881;-55
2022/03/23 08:40:53;;;;;;;16.00;10.27;;;;;;;;;;4945963;28;20561;-54
2022/03/23 08:43:19;;;;;;;15.50;10.50;;;;;;;;;;4944452;28;20442;-55
2022/03/23 08:45:45;;;;;;;16.67;11.17;;;;;;;;;;4947183;28;20438;-54
2022/03/23 08:48:11;;;;;;;13.27;11.13;;;;;;;;;;4947049;28;20504;-59
2022/03/23 08:50:37;;;;;;;17.10;11.60;;;;;;;;;;4947476;28;20453;-54
2022/03/23 08:53:03;;;;;;;17.63;11.47;;;;;;;;;;4951769;28;20451;-56
2022/03/23 08:55:29;;;;;;;14.90;10.50;;;;;;;;;;4945439;28;20482;-55
2022/03/23 08:57:56;;;;;;;17.90;12.70;;;;;;;;;;4947712;28;20666;-53
2022/03/23 09:00:23;;;;;;;17.20;11.40;;;;;;;;;;4949585;28;21039;-54
2022/03/23 09:03:00;;;;;;;18.37;11.60;;;;;;;;;;4951824;28;20439;-55
2022/03/23 09:05:28;;;;;;;19.67;12.33;;;;;;;;;;4955912;28;20449;-55
2022/03/23 09:07:56;;;;;;;20.90;12.40;;;;;;;;;;4946727;28;20525;-55
2022/03/23 09:10:23;;;;;;;16.07;12.70;;;;;;;;;;4947274;28;20450;-55
2022/03/23 09:12:49;;;;;;;20.27;14.20;;;;;;;;;;4949743;28;20470;-55
2022/03/23 09:15:15;;;;;;;19.17;13.60;;;;;;;;;;4945946;28;21011;-55
2022/03/23 09:17:42;;;;;;;18.60;13.60;;;;;;;;;;4948358;28;20438;-56
2022/03/23 09:20:09;;;;;;;16.77;13.40;;;;;;;;;;4945366;28;21014;-55
2022/03/23 09:22:35;;;;;;;19.53;12.57;;;;;;;;;;4945145;28;22211;-55
2022/03/23 09:25:10;;;;;;;19.53;13.70;;;;;;;;;;4945682;28;20754;-56
2022/03/23 09:27:37;;;;;;;23.00;14.50;;;;;;;;;;4947804;28;20434;-55
2022/03/23 09:30:04;;;;;;;18.23;13.93;;;;;;;;;;4930605;28;20441;-55
2022/03/23 09:32:30;;;;;;;16.93;13.57;;;;;;;;;;4944228;28;20950;-55
2022/03/23 09:34:56;;;;;;;16.63;12.83;;;;;;;;;;4947524;28;20529;-55
2022/03/23 09:40:07;;;;;;;21.90;13.30;;;;;;;;;;4948507;28;20486;-56
2022/03/23 09:42:33;;;;;;;17.07;13.20;;;;;;;;;;4948426;28;20449;-55
2022/03/23 09:44:59;;;;;;;14.33;12.70;;;;;;;;;;4939552;28;20468;-56
2022/03/23 09:47:25;;;;;;;14.57;11.50;;;;;;;;;;4953794;28;20481;-56
2022/03/23 09:49:51;;;;;;;16.77;12.40;;;;;;;;;;4948774;28;20187;-55
2022/03/23 09:52:18;;;;;;;15.00;12.20;;;;;;;;;;4949256;28;20521;-55
2022/03/23 09:54:45;;;;;;;18.67;14.93;;;;;;;;;;4947004;28;20449;-55
2022/03/23 09:57:11;;;;;;;15.30;11.80;;;;;;;;;;4948243;28;20602;-57
2022/03/23 09:59:37;;;;;;;12.67;11.37;;;;;;;;;;4947241;28;20451;-55
2022/03/23 10:02:03;;;;;;;14.33;12.27;;;;;;;;;;4943474;28;20856;-54
2022/03/23 10:04:48;;;;;;;20.67;10.57;;;;;;;;;;4946374;28;20447;-56
2022/03/23 10:07:29;;;;;;;11.23;9.90;;;;;;;;;;4949361;28;20423;-55
2022/03/23 10:10:08;;;;;;;13.63;9.93;;;;;;;;;;4950589;28;20434;-55
2022/03/23 10:12:53;;;;;;;13.60;10.90;;;;;;;;;;4948672;28;20526;-56
2022/03/23 10:15:40;;;;;;;16.83;12.60;;;;;;;;;;4950487;28;20486;-56
2022/03/23 10:18:25;;;;;;;14.93;10.80;;;;;;;;;;4947740;28;20493;-56
2022/03/23 10:20:52;;;;;;;11.70;10.43;;;;;;;;;;4948588;28;20442;-57
2022/03/23 10:23:26;;;;;;;11.00;9.90;;;;;;;;;;4942136;28;20939;-56
2022/03/23 10:25:55;;;;;;;11.10;9.73;;;;;;;;;;4945649;28;20826;-56
2022/03/23 10:28:24;;;;;;;11.60;10.40;;;;;;;;;;4944937;28;20423;-56
2022/03/23 10:30:51;;;;;;;11.23;9.10;;;;;;;;;;4946428;28;20910;-56
2022/03/23 10:33:25;;;;;;;14.00;9.87;;;;;;;;;;4944810;28;20447;-56
2022/03/23 10:35:55;;;;;;;11.00;9.73;;;;;;;;;;4949131;28;20586;-55
2022/03/23 10:38:21;;;;;;;10.80;9.30;;;;;;;;;;4946807;28;20442;-56
2022/03/23 10:40:50;;;;;;;9.90;8.33;;;;;;;;;;4946997;28;20439;-56
2022/03/23 10:43:23;;;;;;;10.07;8.97;;;;;;;;;;4944058;28;21344;-56
2022/03/23 10:45:49;;;;;;;12.30;9.37;;;;;;;;;;4974219;28;20508;-54
2022/03/23 10:48:17;;;;;;;12.03;10.00;;;;;;;;;;4943363;28;20876;-54
2022/03/23 10:50:50;;;;;;;12.37;9.90;;;;;;;;;;4944968;28;20732;-55
2022/03/23 10:53:16;;;;;;;11.97;9.47;;;;;;;;;;4943793;28;20508;-55
2022/03/23 10:55:47;;;;;;;14.33;9.00;;;;;;;;;;4944018;28;20479;-57
2022/03/23 10:58:13;;;;;;;10.30;9.30;;;;;;;;;;4945081;28;20710;-56
2022/03/23 11:00:40;;;;;;;17.53;9.50;;;;;;;;;;4944990;28;21033;-56
2022/03/23 11:03:07;;;;;;;12.40;8.83;;;;;;;;;;4942026;28;20448;-56
2022/03/23 11:05:34;;;;;;;9.57;8.57;;;;;;;;;;4942892;28;20449;-54
2022/03/23 11:08:15;;;;;;;10.00;9.10;;;;;;;;;;4945480;28;20453;-57
2022/03/23 11:16:26;;;;;;;13.20;8.53;;;;;;;;;;4943847;28;20492;-54
2022/03/23 11:19:11;;;;;;;10.37;8.33;;;;;;;;;;4943929;28;20431;-56
2022/03/23 11:21:58;;;;;;;12.03;8.80;;;;;;;;;;4950984;28;20434;-56
2022/03/23 11:24:38;;;;;;;12.67;10.20;;;;;;;;;;4943619;28;21064;-56
2022/03/23 11:27:08;;;;;;;13.20;8.43;;;;;;;;;;4947043;28;22136;-57
2022/03/23 11:29:37;;;;;;;11.53;9.43;;;;;;;;;;4941534;28;20441;-54
2022/03/23 11:32:04;;;;;;;11.00;8.47;;;;;;;;;;4953616;28;20941;-55
2022/03/23 11:34:31;;;;;;;12.33;9.83;;;;;;;;;;4948538;28;20513;-56
2022/03/23 11:36:58;;;;;;;12.10;10.70;;;;;;;;;;4946088;28;20478;-56
2022/03/23 11:39:25;;;;;;;14.90;11.23;;;;;;;;;;4943951;28;20438;-58
2022/03/23 11:41:53;;;;;;;13.27;11.87;;;;;;;;;;4930411;28;20451;-56
2022/03/23 11:44:23;;;;;;;11.13;10.03;;;;;;;;;;4942713;28;20439;-57
2022/03/23 11:46:58;;;;;;;14.73;11.03;;;;;;;;;;4947121;28;20441;-56
2022/03/23 11:49:30;;;;;;;11.47;10.30;;;;;;;;;;4944001;28;20474;-56
2022/03/23 11:52:07;;;;;;;11.53;10.43;;;;;;;;;;4945337;28;20846;-56
2022/03/23 11:57:56;;;;;;;10.57;8.80;;;;;;;;;;4942254;28;20730;-56
2022/03/23 12:00:24;;;;;;;9.20;8.03;;;;;;;;;;4944033;28;20853;-56
2022/03/23 12:02:51;;;;;;;10.63;8.80;;;;;;;;;;4941436;28;20459;-56
2022/03/23 12:05:27;;;;;;;12.43;9.40;;;;;;;;;;4941949;28;20439;-55
2022/03/23 12:07:53;;;;;;;13.27;9.70;;;;;;;;;;4936521;28;20496;-56
2022/03/23 12:10:20;;;;;;;14.80;13.27;;;;;;;;;;4941233;28;20438;-57
2022/03/23 12:12:46;;;;;;;15.87;11.87;;;;;;;;;;4943631;28;20448;-57
2022/03/23 12:15:21;;;;;;;12.00;10.17;;;;;;;;;;4942152;28;20482;-56
2022/03/23 12:17:56;;;;;;;12.00;10.80;;;;;;;;;;4946033;28;20460;-57
2022/03/23 12:20:28;;;;;;;11.60;10.53;;;;;;;;;;4946765;28;20442;-57
2022/03/23 12:22:56;;;;;;;13.70;10.70;;;;;;;;;;4944179;28;20497;-56
2022/03/23 12:25:24;;;;;;;10.50;9.00;;;;;;;;;;4944716;28;20548;-56
2022/03/23 12:27:59;;;;;;;13.23;10.53;;;;;;;;;;4946853;28;20461;-56
2022/03/23 12:30:25;;;;;;;10.20;9.20;;;;;;;;;;4947109;28;20441;-56
2022/03/23 12:32:51;;;;;;;11.40;9.17;;;;;;;;;;4942728;28;20528;-55
2022/03/23 12:35:39;;;;;;;12.27;10.07;;;;;;;;;;4942129;28;21156;-57
2022/03/23 12:38:33;;;;;;;11.00;10.00;;;;;;;;;;4954838;28;20446;-56
2022/03/23 12:41:09;;;;;;;11.60;9.40;;;;;;;;;;4943950;28;20793;-57
2022/03/23 12:43:54;;;;;;;10.40;9.37;;;;;;;;;;4949779;28;20438;-57
2022/03/23 12:46:28;;;;;;;11.10;10.00;;;;;;;;;;4942776;28;20439;-55
2022/03/23 12:57:51;;;;;;;11.20;10.10;;;;;;;;;;4946224;28;21106;-57
2022/03/23 13:00:27;;;;;;;10.20;9.20;;;;;;;;;;4943456;28;20473;-56
2022/03/23 13:03:04;;;;;;;8.40;7.60;;;;;;;;;;4941955;28;20445;-56
2022/03/23 13:05:33;;;;;;;15.60;10.80;;;;;;;;;;4941421;28;20541;-57
2022/03/23 13:08:00;;;;;;;12.77;11.47;;;;;;;;;;4945148;28;22136;-58
2022/03/23 13:10:26;;;;;;;11.67;10.53;;;;;;;;;;4944813;28;20457;-62
2022/03/23 13:13:20;;;;;;;11.77;10.57;;;;;;;;;;4944397;28;20525;-57
2022/03/23 13:15:52;;;;;;;10.93;9.70;;;;;;;;;;4944347;28;20563;-57
2022/03/23 13:18:19;;;;;;;11.30;10.10;;;;;;;;;;4942746;28;20629;-58
2022/03/23 13:20:52;;;;;;;10.80;9.70;;;;;;;;;;4941647;28;20446;-58
2022/03/23 13:23:19;;;;;;;10.47;9.37;;;;;;;;;;4937527;28;20439;-58
2022/03/23 13:26:03;;;;;;;10.90;9.67;;;;;;;;;;4944516;28;20901;-58
2022/03/23 13:28:29;;;;;;;10.47;9.30;;;;;;;;;;4942661;28;20477;-57
2022/03/23 13:31:09;;;;;;;11.37;9.27;;;;;;;;;;4943694;28;20454;-58
2022/03/23 13:33:45;;;;;;;10.17;9.17;;;;;;;;;;4939469;28;20493;-57
2022/03/23 13:36:18;;;;;;;11.53;9.73;;;;;;;;;;4945907;28;20559;-57
2022/03/23 13:39:06;;;;;;;11.30;9.27;;;;;;;;;;4945596;28;20451;-56
2022/03/23 13:44:54;;;;;;;13.53;10.20;;;;;;;;;;4943719;28;20696;-55
2022/03/23 13:47:06;;;;;;;14.30;11.90;;;;;;;;;;4944027;28;20446;-57
2022/03/23 13:49:33;;;;;;;14.80;12.13;;;;;;;;;;4946245;28;20458;-57
2022/03/23 13:52:06;;;;;;;11.27;10.10;;;;;;;;;;4943269;28;23401;-57
2022/03/23 13:54:34;;;;;;;13.50;10.30;;;;;;;;;;4943493;28;20435;-59
2022/03/23 13:57:00;;;;;;;12.37;11.10;;;;;;;;;;4955689;28;20482;-56
2022/03/23 13:59:26;;;;;;;12.60;9.77;;;;;;;;;;4953364;28;20473;-55
2022/03/23 14:01:52;;;;;;;14.70;10.53;;;;;;;;;;4941438;28;20435;-57
2022/03/23 14:04:20;;;;;;;15.70;11.30;;;;;;;;;;4943392;28;20525;-57
2022/03/23 14:06:50;;;;;;;13.47;10.10;;;;;;;;;;4940390;28;20450;-58
2022/03/23 14:09:19;;;;;;;11.87;10.63;;;;;;;;;;4943997;28;20447;-55
2022/03/23 14:11:53;;;;;;;13.30;10.90;;;;;;;;;;4944833;28;20457;-55
2022/03/23 14:14:22;;;;;;;11.83;9.80;;;;;;;;;;4947798;28;20553;-55
2022/03/23 14:17:17;;;;;;;9.97;8.97;;;;;;;;;;4943960;28;20530;-58
2022/03/23 14:20:05;;;;;;;12.53;9.23;;;;;;;;;;4948070;28;20448;-55
2022/03/23 14:22:32;;;;;;;10.17;9.07;;;;;;;;;;4961716;28;20581;-54
2022/03/23 14:24:58;;;;;;;12.50;8.40;;;;;;;;;;4940739;28;20450;-56
2022/03/23 14:27:28;;;;;;;10.70;9.27;;;;;;;;;;4950258;28;20615;-53
2022/03/23 14:29:57;;;;;;;11.00;9.90;;;;;;;;;;4945674;28;20793;-54
2022/03/23 14:32:49;;;;;;;12.27;9.90;;;;;;;;;;4946155;28;20466;-56
2022/03/23 14:35:36;;;;;;;13.00;9.87;;;;;;;;;;4948059;28;20493;-55
2022/03/23 14:38:05;;;;;;;14.67;10.20;;;;;;;;;;4943740;28;20858;-54
2022/03/23 14:40:36;;;;;;;13.00;9.43;;;;;;;;;;4948097;28;20521;-56
2022/03/23 14:43:04;;;;;;;14.10;9.40;;;;;;;;;;4939060;28;20457;-56
2022/03/23 14:45:34;;;;;;;9.63;8.63;;;;;;;;;;4941023;28;20431;-56
2022/03/23 14:48:15;;;;;;;10.97;9.80;;;;;;;;;;4945521;28;20446;-56
2022/03/23 14:50:49;;;;;;;11.67;10.03;;;;;;;;;;4941632;28;20431;-56
2022/03/23 14:53:25;;;;;;;14.37;9.57;;;;;;;;;;4943202;28;20515;-55
2022/03/23 14:55:53;;;;;;;11.97;9.67;;;;;;;;;;4945220;28;20525;-56
2022/03/23 14:58:25;;;;;;;16.40;11.17;;;;;;;;;;4948414;28;20801;-56
2022/03/23 15:01:10;;;;;;;12.13;9.87;;;;;;;;;;4944784;28;20469;-56
2022/03/23 15:03:44;;;;;;;14.57;10.80;;;;;;;;;;4941344;28;20497;-56
2022/03/23 15:14:31;;;;;;;12.63;10.10;;;;;;;;;;4945114;28;20441;-57
2022/03/23 15:17:08;;;;;;;13.20;9.07;;;;;;;;;;4943686;28;20478;-56
2022/03/23 15:19:37;;;;;;;14.20;9.00;;;;;;;;;;4945677;28;21410;-56
2022/03/23 15:22:07;;;;;;;10.60;9.30;;;;;;;;;;4943299;28;20445;-57
2022/03/23 15:24:35;;;;;;;13.50;8.20;;;;;;;;;;4944795;28;21312;-57
2022/03/23 15:27:08;;;;;;;14.97;9.60;;;;;;;;;;4944380;28;20511;-55
2022/03/23 15:29:34;;;;;;;12.67;10.00;;;;;;;;;;4939286;28;22017;-55
2022/03/23 15:32:00;;;;;;;10.13;9.10;;;;;;;;;;4937881;28;20522;-56
2022/03/23 15:34:27;;;;;;;12.57;8.80;;;;;;;;;;4942212;28;20451;-56